createdAt,value
2019-04-29T00:01:02.104Z,32.90
2019-04-29T00:04:05.972Z,33.23
2019-04-29T00:07:09.981Z,32.80
2019-04-29T00:10:17.098Z,32.63
2019-04-29T00:13:21.042Z,33.30
2019-04-29T00:16:35.932Z,34.90
2019-04-29T00:19:58.928Z,34.83
2019-04-29T00:23:02.831Z,33.80
2019-04-29T00:26:06.795Z,34.80
2019-04-29T00:29:10.685Z,35.67
2019-04-29T00:32:14.533Z,34.80
2019-04-29T00:35:18.536Z,32.50
2019-04-29T00:38:46.232Z,33.17
2019-04-29T00:42:24.194Z,32.90
2019-04-29T00:45:28.186Z,31.10
2019-04-29T00:48:32.099Z,31.47
2019-04-29T00:51:36.099Z,31.23
2019-04-29T00:54:48.794Z,29.40
2019-04-29T00:57:52.627Z,29.33
2019-04-29T01:00:56.600Z,30.47
2019-04-29T01:04:00.531Z,28.67
2019-04-29T01:07:05.090Z,29.43
2019-04-29T01:10:09.363Z,28.23
2019-04-29T01:13:13.297Z,30.10
2019-04-29T01:16:17.227Z,29.50
2019-04-29T01:19:21.163Z,30.97
2019-04-29T01:22:25.338Z,30.37
2019-04-29T01:25:29.257Z,27.23
2019-04-29T01:28:42.669Z,29.20
2019-04-29T01:31:46.636Z,30.23
2019-04-29T01:34:53.086Z,29.27
2019-04-29T01:37:56.922Z,28.90
2019-04-29T01:41:07.296Z,29.53
2019-04-29T01:44:11.322Z,27.80
2019-04-29T01:47:15.219Z,27.93
2019-04-29T01:50:19.091Z,27.97
2019-04-29T01:53:22.928Z,29.13
2019-04-29T01:56:26.920Z,27.77
2019-04-29T01:59:30.857Z,27.27
2019-04-29T02:02:34.662Z,26.97
2019-04-29T02:05:38.501Z,26.07
2019-04-29T02:08:42.414Z,27.87
2019-04-29T02:11:46.267Z,25.73
2019-04-29T02:14:50.116Z,26.73
2019-04-29T02:17:54.013Z,27.37
2019-04-29T02:20:57.815Z,25.70
2019-04-29T02:24:10.104Z,24.70
2019-04-29T02:27:13.965Z,26.13
2019-04-29T02:30:41.106Z,23.67
2019-04-29T02:33:44.953Z,22.47
2019-04-29T02:36:48.795Z,24.97
2019-04-29T02:39:59.300Z,25.20
2019-04-29T02:43:09.415Z,23.70
2019-04-29T02:46:13.392Z,23.30
2019-04-29T02:49:17.305Z,23.47
2019-04-29T02:52:21.194Z,22.30
2019-04-29T02:55:32.284Z,23.93
2019-04-29T02:58:51.265Z,21.70
2019-04-29T03:02:17.419Z,20.97
2019-04-29T03:05:26.699Z,21.83
2019-04-29T03:08:30.610Z,21.57
2019-04-29T03:11:34.635Z,21.13
2019-04-29T03:14:38.916Z,22.13
2019-04-29T03:17:43.220Z,21.60
2019-04-29T03:21:06.138Z,22.10
2019-04-29T03:24:10.057Z,21.33
2019-04-29T03:27:13.885Z,21.17
2019-04-29T03:30:17.863Z,21.07
2019-04-29T03:33:21.672Z,21.70
2019-04-29T03:36:25.618Z,22.00
2019-04-29T03:39:29.509Z,22.43
2019-04-29T03:42:33.495Z,23.67
2019-04-29T03:45:37.438Z,22.00
2019-04-29T03:48:41.287Z,23.27
2019-04-29T03:51:45.190Z,25.00
2019-04-29T03:54:49.036Z,25.33
2019-04-29T03:57:52.930Z,24.27
2019-04-29T04:01:07.624Z,25.13
2019-04-29T04:04:17.659Z,26.60
2019-04-29T04:07:38.664Z,26.50
2019-04-29T04:10:42.545Z,25.47
2019-04-29T04:13:46.391Z,25.93
2019-04-29T04:17:09.262Z,25.33
2019-04-29T04:20:13.493Z,25.07
2019-04-29T04:23:17.332Z,24.50
2019-04-29T04:26:21.143Z,24.67
2019-04-29T04:29:24.980Z,24.63
2019-04-29T04:32:28.808Z,25.47
2019-04-29T04:35:32.711Z,25.73
2019-04-29T04:38:36.545Z,25.37
2019-04-29T04:41:40.351Z,25.20
2019-04-29T04:44:50.432Z,26.67
2019-04-29T04:47:54.239Z,26.13
2019-04-29T04:50:58.142Z,27.20
2019-04-29T04:54:01.950Z,26.33
2019-04-29T04:57:06.007Z,25.70
2019-04-29T05:00:19.996Z,23.70
2019-04-29T05:03:22.233Z,22.33
2019-04-29T05:06:26.042Z,17.63
2019-04-29T05:09:29.934Z,17.50
2019-04-29T05:12:33.758Z,17.07
2019-04-29T05:15:37.599Z,15.30
2019-04-29T05:18:41.421Z,15.80
2019-04-29T05:21:45.240Z,15.73
2019-04-29T05:24:49.048Z,13.70
2019-04-29T05:27:52.871Z,13.50
2019-04-29T05:30:56.662Z,14.50
2019-04-29T05:34:00.481Z,14.23
2019-04-29T05:37:11.412Z,14.13
2019-04-29T05:40:34.308Z,12.90
2019-04-29T05:43:57.190Z,13.97
2019-04-29T05:47:17.823Z,12.03
2019-04-29T05:50:27.974Z,12.90
2019-04-29T05:53:38.738Z,13.90
2019-04-29T05:56:42.642Z,13.60
2019-04-29T05:59:47.842Z,13.30
2019-04-29T06:02:51.968Z,14.80
2019-04-29T06:05:55.845Z,14.47
2019-04-29T06:08:59.674Z,15.23
2019-04-29T06:12:03.552Z,15.83
2019-04-29T06:15:08.535Z,16.33
2019-04-29T06:18:12.346Z,18.63
2019-04-29T06:21:16.223Z,18.77
2019-04-29T06:24:20.021Z,18.97
2019-04-29T06:27:23.852Z,19.80
2019-04-29T06:30:27.668Z,20.30
2019-04-29T06:33:31.480Z,20.53
2019-04-29T06:36:35.461Z,21.00
2019-04-29T06:39:39.274Z,22.20
2019-04-29T06:42:43.106Z,23.00
2019-04-29T06:45:46.983Z,22.60
2019-04-29T06:48:50.820Z,22.47
2019-04-29T06:51:54.635Z,23.50
2019-04-29T06:54:58.537Z,24.90
2019-04-29T06:58:02.420Z,26.70
2019-04-29T07:01:06.297Z,27.03
2019-04-29T07:04:10.137Z,26.10
2019-04-29T07:07:13.963Z,26.20
2019-04-29T07:10:21.277Z,28.73
2019-04-29T07:13:24.644Z,27.53
2019-04-29T07:16:31.931Z,28.90
2019-04-29T07:19:34.086Z,30.13
2019-04-29T07:22:37.892Z,30.73
2019-04-29T07:25:41.686Z,29.80
2019-04-29T07:28:48.776Z,29.97
2019-04-29T07:31:51.104Z,30.30
2019-04-29T07:34:54.933Z,28.93
2019-04-29T07:37:58.762Z,29.97
2019-04-29T07:41:02.572Z,29.10
2019-04-29T07:44:06.532Z,29.23
2019-04-29T07:47:10.341Z,29.27
2019-04-29T07:50:14.747Z,31.87
2019-04-29T07:53:21.917Z,29.13
2019-04-29T07:56:24.227Z,28.33
2019-04-29T07:59:28.068Z,29.13
2019-04-29T08:02:31.874Z,27.87
2019-04-29T08:05:36.286Z,28.13
2019-04-29T08:08:53.949Z,27.33
2019-04-29T08:11:47.980Z,27.93
2019-04-29T08:14:57.811Z,26.70
2019-04-29T08:18:06.469Z,27.23
2019-04-29T08:21:04.658Z,27.63
2019-04-29T08:24:11.630Z,26.53
2019-04-29T08:27:14.087Z,26.90
2019-04-29T08:30:18.400Z,25.93
2019-04-29T08:33:22.314Z,25.03
2019-04-29T08:36:26.139Z,28.13
2019-04-29T08:39:31.169Z,25.47
2019-04-29T08:42:41.391Z,24.90
2019-04-29T08:45:48.444Z,25.03
2019-04-29T08:48:52.261Z,24.80
2019-04-29T08:51:56.141Z,24.33
2019-04-29T08:54:59.965Z,26.73
2019-04-29T08:58:06.891Z,26.13
2019-04-29T09:01:09.541Z,24.07
2019-04-29T09:04:13.367Z,23.47
2019-04-29T09:07:21.836Z,24.53
2019-04-29T09:10:22.789Z,25.50
2019-04-29T09:13:26.687Z,23.07
2019-04-29T09:16:30.498Z,24.10
2019-04-29T09:19:34.402Z,24.60
2019-04-29T09:22:40.903Z,24.87
2019-04-29T09:26:03.100Z,24.43
2019-04-29T09:29:25.304Z,24.50
2019-04-29T09:32:29.125Z,26.07
2019-04-29T09:35:33.820Z,25.77
2019-04-29T09:38:38.743Z,26.37
2019-04-29T09:41:58.755Z,27.23
2019-04-29T09:45:09.258Z,28.17
2019-04-29T09:48:13.135Z,26.30
2019-04-29T09:51:18.245Z,28.03
2019-04-29T09:54:22.625Z,26.23
2019-04-29T09:57:26.473Z,28.70
2019-04-29T10:01:01.591Z,24.97
2019-04-29T10:04:39.659Z,26.67
2019-04-29T10:07:43.828Z,24.37
2019-04-29T10:10:47.716Z,27.83
2019-04-29T10:13:51.538Z,25.63
2019-04-29T10:17:17.373Z,24.90
2019-04-29T10:20:26.035Z,25.63
2019-04-29T10:23:29.862Z,25.37
2019-04-29T10:26:33.767Z,23.47
2019-04-29T10:29:38.444Z,24.60
2019-04-29T10:32:43.599Z,23.70
2019-04-29T10:35:47.453Z,21.93
2019-04-29T10:38:53.102Z,24.33
2019-04-29T10:41:58.805Z,23.73
2019-04-29T10:45:15.149Z,25.30
2019-04-29T10:48:26.274Z,25.33
2019-04-29T10:51:30.160Z,24.47
2019-04-29T10:54:34.686Z,25.20
2019-04-29T10:57:38.537Z,24.90
2019-04-29T11:01:30.696Z,26.37
2019-04-29T11:04:36.074Z,25.00
2019-04-29T11:07:41.079Z,24.40
2019-04-29T11:10:44.987Z,22.00
2019-04-29T11:13:50.628Z,22.50
2019-04-29T11:16:54.383Z,24.40
2019-04-29T11:19:58.270Z,23.23
2019-04-29T11:23:16.601Z,20.63
2019-04-29T11:26:32.226Z,15.93
2019-04-29T11:29:36.143Z,16.10
2019-04-29T11:32:44.949Z,14.80
2019-04-29T11:35:59.202Z,12.67
2019-04-29T11:39:01.750Z,11.73
2019-04-29T11:42:08.616Z,11.97
2019-04-29T11:45:13.681Z,9.30
2019-04-29T11:48:17.860Z,9.80
2019-04-29T11:51:48.421Z,9.63
2019-04-29T11:54:41.148Z,9.80
2019-04-29T11:58:03.982Z,9.03
2019-04-29T12:01:37.475Z,8.93
2019-04-29T12:04:37.824Z,7.37
2019-04-29T12:07:41.879Z,7.20
2019-04-29T12:10:51.802Z,7.00
2019-04-29T12:14:09.475Z,7.97
2019-04-29T12:17:20.639Z,8.20
2019-04-29T12:20:30.056Z,8.10
2019-04-29T12:23:33.934Z,8.40
2019-04-29T12:26:43.179Z,7.90
2019-04-29T12:29:43.599Z,8.47
2019-04-29T12:33:01.306Z,9.87
2019-04-29T12:36:06.494Z,9.50
2019-04-29T12:39:43.079Z,9.43
2019-04-29T12:43:05.086Z,9.77
2019-04-29T12:46:13.923Z,10.17
2019-04-29T12:49:17.747Z,9.50
2019-04-29T12:52:21.826Z,10.30
2019-04-29T12:55:44.183Z,10.50
2019-04-29T12:58:38.437Z,9.80
2019-04-29T13:01:59.547Z,9.27
2019-04-29T13:05:25.977Z,9.73
2019-04-29T13:08:33.540Z,9.73
2019-04-29T13:11:48.016Z,9.40
2019-04-29T13:15:02.536Z,9.43
2019-04-29T13:18:13.008Z,9.17
2019-04-29T13:21:10.832Z,9.83
2019-04-29T13:24:24.271Z,9.20
2019-04-29T13:27:24.854Z,9.63
2019-04-29T13:30:26.328Z,10.37
2019-04-29T13:33:30.240Z,8.63
2019-04-29T13:36:34.252Z,9.23
2019-04-29T13:39:40.538Z,9.17
2019-04-29T13:42:48.483Z,8.23
2019-04-29T13:45:56.042Z,8.40
2019-04-29T13:49:13.579Z,8.30
2019-04-29T13:52:16.531Z,7.73
2019-04-29T13:55:46.551Z,7.80
2019-04-29T13:58:27.030Z,7.23
2019-04-29T14:01:57.810Z,7.53
2019-04-29T14:04:55.881Z,7.27
2019-04-29T14:07:59.773Z,7.87
2019-04-29T14:11:03.756Z,7.50
2019-04-29T14:14:07.585Z,7.23
2019-04-29T14:17:25.314Z,7.20
2019-04-29T14:20:17.545Z,7.40
2019-04-29T14:23:21.451Z,7.07
2019-04-29T14:26:25.291Z,7.23
2019-04-29T14:29:30.332Z,6.57
2019-04-29T14:32:38.062Z,7.03
2019-04-29T14:35:59.614Z,6.23
2019-04-29T14:39:05.927Z,6.43
2019-04-29T14:42:30.189Z,6.73
2019-04-29T14:45:48.647Z,6.83
2019-04-29T14:49:04.302Z,6.57
2019-04-29T14:52:08.389Z,5.57
2019-04-29T14:55:14.792Z,5.00
2019-04-29T14:58:17.381Z,5.00
2019-04-29T15:01:27.324Z,4.60
2019-04-29T15:04:34.642Z,4.67
2019-04-29T15:07:38.513Z,4.43
2019-04-29T15:10:43.192Z,4.23
2019-04-29T15:13:49.035Z,4.10
2019-04-29T15:16:59.025Z,3.83
2019-04-29T15:20:11.570Z,4.37
2019-04-29T15:23:27.939Z,3.80
2019-04-29T15:26:21.068Z,3.07
2019-04-29T15:29:24.900Z,3.27
2019-04-29T15:32:28.813Z,3.47
2019-04-29T15:35:32.667Z,2.90
2019-04-29T15:38:36.539Z,2.97
2019-04-29T15:41:40.483Z,2.83
2019-04-29T15:44:44.517Z,2.80
2019-04-29T15:47:48.369Z,2.23
2019-04-29T15:50:52.203Z,2.77
2019-04-29T15:53:56.098Z,2.97
2019-04-29T15:57:03.656Z,2.40
2019-04-29T16:00:20.618Z,2.80
2019-04-29T16:03:16.833Z,2.43
2019-04-29T16:06:46.141Z,2.43
2019-04-29T16:10:07.857Z,2.30
2019-04-29T16:13:12.149Z,2.67
2019-04-29T16:16:16.039Z,2.33
2019-04-29T16:19:19.951Z,2.10
2019-04-29T16:22:23.786Z,2.70
2019-04-29T16:25:27.582Z,2.60
2019-04-29T16:28:36.548Z,2.20
2019-04-29T16:31:37.012Z,2.10
2019-04-29T16:34:44.663Z,2.70
2019-04-29T16:37:46.653Z,2.17
2019-04-29T16:40:58.192Z,2.40
2019-04-29T16:44:02.034Z,2.20
2019-04-29T16:47:13.127Z,2.53
2019-04-29T16:50:13.478Z,2.50
2019-04-29T16:53:17.396Z,2.67
2019-04-29T16:56:21.516Z,2.40
2019-04-29T16:59:25.310Z,2.43
2019-04-29T17:02:29.108Z,2.10
2019-04-29T17:05:32.919Z,2.13
2019-04-29T17:09:02.906Z,2.13
2019-04-29T17:12:01.814Z,2.33
2019-04-29T17:18:12.215Z,2.57
2019-04-29T17:21:16.044Z,2.50
2019-04-29T17:24:19.877Z,2.60
2019-04-29T17:27:35.091Z,1.73
2019-04-29T17:31:12.227Z,2.10
2019-04-29T17:34:54.806Z,2.20
2019-04-29T17:35:18.696Z,2.33
2019-04-29T17:37:30.937Z,2.00
2019-04-29T17:40:37.299Z,2.13
2019-04-29T17:43:52.196Z,2.30
2019-04-29T17:47:11.446Z,2.17
2019-04-29T17:50:32.774Z,1.87
2019-04-29T17:53:40.909Z,1.90
2019-04-29T17:57:10.207Z,2.13
2019-04-29T18:00:18.551Z,1.93
2019-04-29T18:03:41.404Z,1.70
2019-04-29T18:07:08.165Z,1.80
2019-04-29T18:10:17.659Z,1.70
2019-04-29T18:13:23.749Z,1.90
2019-04-29T18:16:30.455Z,1.50
2019-04-29T18:19:42.238Z,1.77
2019-04-29T18:23:00.195Z,2.07
2019-04-29T18:26:07.433Z,1.80
2019-04-29T18:29:11.509Z,1.87
2019-04-29T18:32:15.622Z,1.87
2019-04-29T18:35:19.589Z,1.97
2019-04-29T18:38:26.258Z,2.50
2019-04-29T18:41:28.971Z,2.00
2019-04-29T18:44:32.919Z,1.83
2019-04-29T18:47:38.773Z,2.00
2019-04-29T18:50:42.435Z,1.80
2019-04-29T18:53:47.184Z,1.80
2019-04-29T18:56:51.216Z,2.20
2019-04-29T18:59:55.140Z,2.00
2019-04-29T19:03:01.044Z,2.03
2019-04-29T19:06:10.264Z,2.03
2019-04-29T19:09:17.802Z,2.20
2019-04-29T19:12:16.889Z,1.97
2019-04-29T19:15:20.693Z,2.00
2019-04-29T19:18:25.477Z,2.00
2019-04-29T19:21:31.481Z,2.30
2019-04-29T19:24:36.587Z,2.30
2019-04-29T19:27:40.939Z,2.00
2019-04-29T19:30:45.203Z,2.60
2019-04-29T19:33:49.148Z,2.83
2019-04-29T19:36:57.992Z,2.40
2019-04-29T19:39:59.656Z,2.10
2019-04-29T19:43:03.488Z,2.20
2019-04-29T19:46:07.324Z,2.10
2019-04-29T19:49:11.168Z,1.90
2019-04-29T19:52:19.012Z,2.20
2019-04-29T19:55:20.652Z,2.23
2019-04-29T19:58:29.541Z,2.30
2019-04-29T20:01:32.240Z,2.50
2019-04-29T20:04:44.377Z,1.63
2019-04-29T20:07:50.732Z,1.93
2019-04-29T20:10:58.124Z,2.10
2019-04-29T20:14:04.441Z,1.93
2019-04-29T20:17:19.086Z,2.37
2019-04-29T20:20:35.040Z,2.50
2019-04-29T20:23:39.258Z,2.23
2019-04-29T20:26:44.167Z,2.20
2019-04-29T20:29:48.040Z,2.00
2019-04-29T20:32:52.021Z,2.27
2019-04-29T20:36:01.630Z,2.80
2019-04-29T20:39:01.610Z,2.80
2019-04-29T20:42:10.276Z,2.70
2019-04-29T20:45:11.749Z,3.20
2019-04-29T20:48:19.474Z,3.07
2019-04-29T20:51:23.353Z,2.90
2019-04-29T20:54:28.627Z,2.80
2019-04-29T20:57:32.513Z,3.00
2019-04-29T21:00:38.809Z,2.87
2019-04-29T21:03:48.449Z,3.23
2019-04-29T21:06:59.851Z,3.40
2019-04-29T21:09:55.774Z,4.00
2019-04-29T21:13:22.506Z,3.20
2019-04-29T21:16:30.869Z,3.73
2019-04-29T21:19:34.940Z,3.30
2019-04-29T21:22:38.864Z,3.83
2019-04-29T21:25:42.709Z,3.37
2019-04-29T21:28:47.085Z,3.80
2019-04-29T21:31:58.457Z,3.50
2019-04-29T21:35:05.812Z,3.57
2019-04-29T21:38:30.448Z,3.27
2019-04-29T21:41:45.916Z,3.03
2019-04-29T21:44:49.764Z,3.77
2019-04-29T21:47:54.623Z,4.27
2019-04-29T21:50:58.747Z,3.83
2019-04-29T21:54:02.636Z,4.07
2019-04-29T21:57:06.533Z,4.00
2019-04-29T22:00:11.162Z,3.80
2019-04-29T22:03:15.456Z,3.17
2019-04-29T22:06:19.655Z,4.03
2019-04-29T22:09:34.054Z,3.90
2019-04-29T22:12:29.025Z,3.90
2019-04-29T22:15:38.209Z,3.97
2019-04-29T22:18:38.543Z,3.10
2019-04-29T22:21:42.567Z,3.37
2019-04-29T22:24:46.404Z,2.90
2019-04-29T22:27:50.320Z,3.43
2019-04-29T22:30:55.150Z,3.27
2019-04-29T22:33:59.670Z,3.60
2019-04-29T22:37:05.377Z,3.47
2019-04-29T22:40:09.515Z,3.53
2019-04-29T22:43:29.116Z,3.17
2019-04-29T22:46:32.979Z,3.80
2019-04-29T22:49:36.881Z,3.37
2019-04-29T22:52:40.753Z,3.40
2019-04-29T22:55:45.248Z,3.43
2019-04-29T22:58:49.116Z,3.20
2019-04-29T23:01:52.899Z,3.30
2019-04-29T23:04:56.731Z,3.43
2019-04-29T23:08:01.471Z,3.60
2019-04-29T23:11:05.552Z,3.17
2019-04-29T23:14:10.195Z,4.17
2019-04-29T23:17:15.779Z,3.10
2019-04-29T23:20:37.425Z,3.77
2019-04-29T23:23:45.575Z,3.80
2019-04-29T23:26:49.394Z,4.20
2019-04-29T23:29:53.256Z,3.73
2019-04-29T23:32:57.397Z,3.87
2019-04-29T23:36:01.292Z,3.33
2019-04-29T23:39:06.300Z,4.10
2019-04-29T23:42:12.135Z,3.93
2019-04-29T23:45:20.897Z,4.80
2019-04-29T23:48:23.890Z,4.20
2019-04-29T23:51:33.766Z,3.80
2019-04-29T23:54:43.746Z,3.70
2019-04-29T23:58:02.936Z,4.20
